createdAt,value
2019-04-28T00:01:59.059Z,38.40
2019-04-28T00:04:31.554Z,35.05
2019-04-28T00:07:03.513Z,33.92
2019-04-28T00:09:35.075Z,34.50
2019-04-28T00:12:06.938Z,36.48
2019-04-28T00:14:38.990Z,37.83
2019-04-28T00:17:12.099Z,35.78
2019-04-28T00:19:43.843Z,31.05
2019-04-28T00:22:17.465Z,39.45
2019-04-28T00:24:53.511Z,33.98
2019-04-28T00:27:25.187Z,34.95
2019-04-28T00:29:57.252Z,33.50
2019-04-28T00:32:30.471Z,35.68
2019-04-28T00:35:03.483Z,37.00
2019-04-28T00:37:36.615Z,33.15
2019-04-28T00:40:11.101Z,34.80
2019-04-28T00:42:43.024Z,34.65
2019-04-28T00:45:15.391Z,37.03
2019-04-28T00:47:47.252Z,38.50
2019-04-28T00:50:18.820Z,34.48
2019-04-28T00:52:51.813Z,35.88
2019-04-28T00:55:23.571Z,38.67
2019-04-28T00:57:55.436Z,35.85
2019-04-28T01:00:28.634Z,40.88
2019-04-28T01:03:02.198Z,39.78
2019-04-28T01:05:33.936Z,42.10
2019-04-28T01:08:05.692Z,43.70
2019-04-28T01:10:37.716Z,47.65
2019-04-28T01:13:11.604Z,44.63
2019-04-28T01:16:01.622Z,45.35
2019-04-28T01:18:35.428Z,43.40
2019-04-28T01:21:07.293Z,44.98
2019-04-28T01:23:40.251Z,44.48
2019-04-28T01:26:12.128Z,36.90
2019-04-28T01:28:43.989Z,35.65
2019-04-28T01:31:19.343Z,37.65
2019-04-28T01:34:10.308Z,46.77
2019-04-28T01:36:42.211Z,32.95
2019-04-28T01:39:14.194Z,33.58
2019-04-28T01:41:45.828Z,30.95
2019-04-28T01:44:19.674Z,28.05
2019-04-28T01:46:51.097Z,30.10
2019-04-28T01:49:23.081Z,27.15
2019-04-28T01:52:00.950Z,25.75
2019-04-28T01:54:33.861Z,27.40
2019-04-28T01:57:05.740Z,30.25
2019-04-28T01:59:37.689Z,31.42
2019-04-28T02:02:10.331Z,20.80
2019-04-28T02:04:42.259Z,22.37
2019-04-28T02:07:15.436Z,20.67
2019-04-28T02:09:49.062Z,20.50
2019-04-28T02:12:20.707Z,19.40
2019-04-28T02:14:52.986Z,20.57
2019-04-28T02:17:24.622Z,20.80
2019-04-28T02:19:56.689Z,21.07
2019-04-28T02:22:33.993Z,19.32
2019-04-28T02:25:07.419Z,20.45
2019-04-28T02:27:40.043Z,19.23
2019-04-28T02:30:12.847Z,14.65
2019-04-28T02:32:44.833Z,15.95
2019-04-28T02:35:17.615Z,13.98
2019-04-28T02:37:50.501Z,11.73
2019-04-28T02:40:22.204Z,22.20
2019-04-28T02:42:53.819Z,19.73
2019-04-28T02:45:26.166Z,18.30
2019-04-28T02:48:01.016Z,17.50
2019-04-28T02:50:34.327Z,17.30
2019-04-28T02:53:11.177Z,15.65
2019-04-28T02:56:03.587Z,14.05
2019-04-28T02:58:35.515Z,12.78
2019-04-28T03:01:18.045Z,14.95
2019-04-28T03:03:41.094Z,16.50
2019-04-28T03:06:13.244Z,14.65
2019-04-28T03:08:46.148Z,12.93
2019-04-28T03:11:20.322Z,18.12
2019-04-28T03:13:51.372Z,16.07
2019-04-28T03:16:23.777Z,14.20
2019-04-28T03:18:55.853Z,16.00
2019-04-28T03:21:28.002Z,17.02
2019-04-28T03:24:01.235Z,14.85
2019-04-28T03:26:34.912Z,15.78
2019-04-28T03:29:10.990Z,15.03
2019-04-28T03:32:10.135Z,16.25
2019-04-28T03:34:22.901Z,16.85
2019-04-28T03:36:52.191Z,14.98
2019-04-28T03:39:24.484Z,14.73
2019-04-28T03:41:56.141Z,16.95
2019-04-28T03:44:30.897Z,13.28
2019-04-28T03:47:03.105Z,15.38
2019-04-28T03:49:35.423Z,18.12
2019-04-28T03:52:10.541Z,12.90
2019-04-28T03:57:12.641Z,19.17
2019-04-28T03:59:44.258Z,16.42
2019-04-28T04:02:16.161Z,20.75
2019-04-28T04:04:49.050Z,19.40
2019-04-28T04:07:21.780Z,18.40
2019-04-28T04:09:55.220Z,18.92
2019-04-28T04:12:37.522Z,19.70
2019-04-28T04:15:11.315Z,18.15
2019-04-28T04:18:01.527Z,15.75
2019-04-28T04:20:33.199Z,14.07
2019-04-28T04:23:05.466Z,12.05
2019-04-28T04:25:37.034Z,10.55
2019-04-28T04:28:10.592Z,11.90
2019-04-28T04:30:42.497Z,15.80
2019-04-28T04:33:14.871Z,12.35
2019-04-28T04:35:46.736Z,11.65
2019-04-28T04:38:18.398Z,15.70
2019-04-28T04:40:51.292Z,12.37
2019-04-28T04:43:24.376Z,12.07
2019-04-28T04:46:14.218Z,14.87
2019-04-28T04:48:46.330Z,14.80
2019-04-28T04:51:20.919Z,16.42
2019-04-28T04:53:51.756Z,15.78
2019-04-28T04:56:23.722Z,17.65
2019-04-28T04:58:55.960Z,18.32
2019-04-28T05:01:30.411Z,16.42
2019-04-28T05:04:06.728Z,20.32
2019-04-28T05:06:41.574Z,19.62
2019-04-28T05:09:13.817Z,18.73
2019-04-28T05:11:46.038Z,19.90
2019-04-28T05:14:19.646Z,16.32
2019-04-28T05:16:50.959Z,15.58
2019-04-28T05:19:23.207Z,15.65
2019-04-28T05:21:54.877Z,19.42
2019-04-28T05:24:33.956Z,17.30
2019-04-28T05:27:05.889Z,17.10
2019-04-28T05:29:39.443Z,22.30
2019-04-28T05:32:11.414Z,17.35
2019-04-28T05:34:46.830Z,17.62
2019-04-28T05:37:16.820Z,17.92
2019-04-28T05:39:49.716Z,15.65
2019-04-28T05:42:21.982Z,17.45
2019-04-28T05:44:54.870Z,16.95
2019-04-28T05:47:26.731Z,20.37
2019-04-28T05:50:00.334Z,20.02
2019-04-28T05:52:33.510Z,19.65
2019-04-28T05:55:14.081Z,19.07
2019-04-28T05:58:05.839Z,20.55
2019-04-28T06:00:51.213Z,17.15
2019-04-28T06:03:30.654Z,23.65
2019-04-28T06:06:03.663Z,21.85
2019-04-28T06:08:37.142Z,22.07
2019-04-28T06:11:26.620Z,21.20
2019-04-28T06:13:59.877Z,20.72
2019-04-28T06:16:31.781Z,21.23
2019-04-28T06:19:03.765Z,20.05
2019-04-28T06:21:35.507Z,25.25
2019-04-28T06:24:07.579Z,19.90
2019-04-28T06:26:39.555Z,19.85
2019-04-28T06:29:11.374Z,22.15
2019-04-28T06:31:43.373Z,18.40
2019-04-28T06:34:15.240Z,17.35
2019-04-28T06:36:47.289Z,16.93
2019-04-28T06:39:19.165Z,21.68
2019-04-28T06:41:51.319Z,19.25
2019-04-28T06:44:22.998Z,16.10
2019-04-28T06:46:55.063Z,20.35
2019-04-28T06:49:26.928Z,14.95
2019-04-28T06:51:58.697Z,16.52
2019-04-28T06:54:30.553Z,17.05
2019-04-28T06:57:03.732Z,18.13
2019-04-28T06:59:35.718Z,16.37
2019-04-28T07:02:07.792Z,19.15
2019-04-28T07:04:39.527Z,19.02
2019-04-28T07:07:11.679Z,17.73
2019-04-28T07:09:43.683Z,18.70
2019-04-28T07:12:15.750Z,14.55
2019-04-28T07:14:47.609Z,15.93
2019-04-28T07:17:19.474Z,16.62
2019-04-28T07:19:53.284Z,14.30
2019-04-28T07:22:26.563Z,17.65
2019-04-28T07:24:58.526Z,15.40
2019-04-28T07:27:30.495Z,13.98
2019-04-28T07:30:02.270Z,15.72
2019-04-28T07:32:35.467Z,15.05
2019-04-28T07:35:07.388Z,15.43
2019-04-28T07:37:39.095Z,15.80
2019-04-28T07:40:11.466Z,13.50
2019-04-28T07:42:44.663Z,12.95
2019-04-28T07:45:16.941Z,19.45
2019-04-28T07:47:48.796Z,16.25
2019-04-28T07:50:20.845Z,12.80
2019-04-28T07:52:54.392Z,13.13
2019-04-28T07:55:26.558Z,11.48
2019-04-28T07:57:58.603Z,12.40
2019-04-28T08:00:31.688Z,14.38
2019-04-28T08:03:03.460Z,13.97
2019-04-28T08:05:35.605Z,13.65
2019-04-28T08:08:07.265Z,10.40
2019-04-28T08:10:39.356Z,10.78
2019-04-28T08:13:11.113Z,9.15
2019-04-28T08:15:42.982Z,9.25
2019-04-28T08:18:14.616Z,8.05
2019-04-28T08:20:46.582Z,9.68
2019-04-28T08:23:18.268Z,10.65
2019-04-28T08:25:50.427Z,8.13
2019-04-28T08:28:22.190Z,7.97
2019-04-28T08:30:53.845Z,8.23
2019-04-28T08:33:36.548Z,9.10
2019-04-28T08:36:08.309Z,8.55
2019-04-28T08:38:40.295Z,11.78
2019-04-28T08:41:12.263Z,9.83
2019-04-28T08:43:43.902Z,8.35
2019-04-28T08:46:17.490Z,10.85
2019-04-28T08:51:19.969Z,9.90
2019-04-28T08:53:51.995Z,8.70
2019-04-28T08:56:24.692Z,7.58
2019-04-28T08:58:56.338Z,7.87
2019-04-28T09:01:28.297Z,8.20
2019-04-28T09:03:59.936Z,9.05
2019-04-28T09:06:32.027Z,7.45
2019-04-28T09:09:05.747Z,7.37
2019-04-28T09:14:08.747Z,10.93
2019-04-28T09:16:40.384Z,10.00
2019-04-28T09:19:12.496Z,5.92
2019-04-28T09:21:44.110Z,7.65
2019-04-28T09:24:16.193Z,6.00
2019-04-28T09:26:47.956Z,6.17
2019-04-28T09:29:19.798Z,7.45
2019-04-28T09:31:51.681Z,5.50
2019-04-28T09:34:28.378Z,6.10
2019-04-28T09:36:56.750Z,5.83
2019-04-28T09:39:42.716Z,6.80
2019-04-28T09:42:31.505Z,7.05
2019-04-28T09:45:14.013Z,6.17
2019-04-28T09:47:45.977Z,7.78
2019-04-28T09:50:17.519Z,10.10
2019-04-28T09:52:49.703Z,7.70
2019-04-28T09:55:21.879Z,10.93
2019-04-28T09:57:54.921Z,7.67
2019-04-28T10:00:26.734Z,10.60
2019-04-28T10:02:58.596Z,16.07
2019-04-28T10:05:30.887Z,13.72
2019-04-28T10:08:02.529Z,12.28
2019-04-28T10:10:34.506Z,12.20
2019-04-28T10:13:06.153Z,10.95
2019-04-28T10:15:39.345Z,12.13
2019-04-28T10:18:11.316Z,8.03
2019-04-28T10:20:43.179Z,9.65
2019-04-28T10:23:14.838Z,9.03
2019-04-28T10:25:46.907Z,9.63
2019-04-28T10:28:19.800Z,10.45
2019-04-28T10:30:51.606Z,8.45
2019-04-28T10:33:23.200Z,8.00
2019-04-28T10:35:55.202Z,7.50
2019-04-28T10:38:27.051Z,8.45
2019-04-28T10:41:00.173Z,9.65
2019-04-28T10:43:32.810Z,9.05
2019-04-28T10:46:04.789Z,12.20
2019-04-28T10:48:37.609Z,10.43
2019-04-28T10:51:09.219Z,9.85
2019-04-28T10:53:41.092Z,9.63
2019-04-28T10:56:13.145Z,9.83
2019-04-28T10:58:46.561Z,10.70
2019-04-28T11:01:18.508Z,9.15
2019-04-28T11:03:52.031Z,7.72
2019-04-28T11:06:23.999Z,7.53
2019-04-28T11:09:00.038Z,8.70
2019-04-28T11:11:31.805Z,9.85
2019-04-28T11:14:03.479Z,6.85
2019-04-28T11:16:37.799Z,7.00
2019-04-28T11:19:09.975Z,6.50
2019-04-28T11:21:41.824Z,9.20
2019-04-28T11:24:13.912Z,6.25
2019-04-28T11:26:45.651Z,6.35
2019-04-28T11:29:17.942Z,8.83
2019-04-28T11:31:50.522Z,8.50
2019-04-28T11:34:26.993Z,7.72
2019-04-28T11:36:58.958Z,10.03
2019-04-28T11:39:32.351Z,9.05
2019-04-28T11:42:04.234Z,12.15
2019-04-28T11:44:36.081Z,9.63
2019-04-28T11:47:09.586Z,10.20
2019-04-28T11:49:41.436Z,9.95
2019-04-28T11:52:13.626Z,12.85
2019-04-28T11:54:45.390Z,13.83
2019-04-28T11:57:17.377Z,30.25
2019-04-28T11:59:49.318Z,11.33
2019-04-28T12:02:21.280Z,15.30
2019-04-28T12:04:54.917Z,16.95
2019-04-28T12:07:26.746Z,10.68
2019-04-28T12:10:05.392Z,17.17
2019-04-28T12:12:43.374Z,16.73
2019-04-28T12:15:25.992Z,16.50
2019-04-28T12:18:14.749Z,23.40
2019-04-28T12:20:46.718Z,56.60
2019-04-28T12:23:18.667Z,16.90
2019-04-28T12:25:50.769Z,57.83
2019-04-28T12:28:22.496Z,104.43
2019-04-28T12:30:54.580Z,12.13
2019-04-28T12:33:26.481Z,13.10
2019-04-28T12:35:58.627Z,15.23
2019-04-28T12:38:30.373Z,13.00
2019-04-28T12:41:02.441Z,14.15
2019-04-28T12:43:34.194Z,13.68
2019-04-28T12:46:06.168Z,16.12
2019-04-28T12:48:37.929Z,12.00
2019-04-28T12:51:09.897Z,12.25
2019-04-28T12:53:41.929Z,13.05
2019-04-28T12:56:15.363Z,13.18
2019-04-28T12:58:50.095Z,15.45
2019-04-28T13:01:32.692Z,11.12
2019-04-28T13:04:12.153Z,10.60
2019-04-28T13:06:46.268Z,15.70
2019-04-28T13:09:18.337Z,14.58
2019-04-28T13:11:50.202Z,13.65
2019-04-28T13:14:22.270Z,11.70
2019-04-28T13:16:54.033Z,12.13
2019-04-28T13:19:26.313Z,17.40
2019-04-28T13:21:58.071Z,13.75
2019-04-28T13:24:30.141Z,11.15
2019-04-28T13:27:02.001Z,17.60
2019-04-28T13:29:33.953Z,19.23
2019-04-28T13:32:05.853Z,17.95
2019-04-28T13:34:39.139Z,21.52
2019-04-28T13:37:11.120Z,21.55
2019-04-28T13:39:45.207Z,20.50
2019-04-28T13:42:17.290Z,20.62
2019-04-28T13:44:50.739Z,23.30
2019-04-28T13:49:57.080Z,16.25
2019-04-28T13:52:28.943Z,19.35
2019-04-28T13:55:08.174Z,15.70
2019-04-28T13:57:42.338Z,14.78
2019-04-28T14:00:18.055Z,16.70
2019-04-28T14:02:54.623Z,16.25
2019-04-28T14:05:34.066Z,15.43
2019-04-28T14:08:05.755Z,15.03
2019-04-28T14:10:37.664Z,18.67
2019-04-28T14:13:10.800Z,16.93
2019-04-28T14:15:42.843Z,19.30
2019-04-28T14:18:14.603Z,20.77
2019-04-28T14:20:46.739Z,19.57
2019-04-28T14:23:19.692Z,18.10
2019-04-28T14:25:51.744Z,17.48
2019-04-28T14:28:23.422Z,17.05
2019-04-28T14:30:55.322Z,23.30
2019-04-28T14:33:26.930Z,19.90
2019-04-28T14:35:58.670Z,18.82
2019-04-28T14:38:30.660Z,16.85
2019-04-28T14:41:02.311Z,19.57
2019-04-28T14:43:34.380Z,13.35
2019-04-28T14:46:06.130Z,14.38
2019-04-28T14:48:38.159Z,17.65
2019-04-28T14:51:10.815Z,14.65
2019-04-28T14:53:42.339Z,19.57
2019-04-28T14:56:14.337Z,16.85
2019-04-28T14:58:46.380Z,16.57
2019-04-28T15:01:21.104Z,22.42
2019-04-28T15:03:54.385Z,17.62
2019-04-28T15:06:28.115Z,18.07
2019-04-28T15:09:16.776Z,16.70
2019-04-28T15:11:56.423Z,13.70
2019-04-28T15:14:28.225Z,15.95
2019-04-28T15:17:01.175Z,18.80
2019-04-28T15:19:33.098Z,21.55
2019-04-28T15:22:05.105Z,28.90
2019-04-28T15:24:36.966Z,53.05
2019-04-28T15:27:09.016Z,21.40
2019-04-28T15:29:40.786Z,28.73
2019-04-28T15:32:12.345Z,21.35
2019-04-28T15:34:44.421Z,22.87
2019-04-28T15:37:16.286Z,20.37
2019-04-28T15:39:48.271Z,16.10
2019-04-28T15:42:20.110Z,29.25
2019-04-28T15:44:51.853Z,29.27
2019-04-28T15:47:23.835Z,27.87
2019-04-28T15:49:55.787Z,20.15
2019-04-28T15:52:27.977Z,19.20
2019-04-28T15:54:59.826Z,21.33
2019-04-28T15:57:31.600Z,19.50
2019-04-28T16:00:05.334Z,18.30
2019-04-28T16:02:38.402Z,18.55
2019-04-28T16:05:10.630Z,18.42
2019-04-28T16:07:42.312Z,19.57
2019-04-28T16:10:14.794Z,20.62
2019-04-28T16:12:47.196Z,22.35
2019-04-28T16:15:18.947Z,23.85
2019-04-28T16:17:50.502Z,27.30
2019-04-28T16:20:22.468Z,23.87
2019-04-28T16:22:54.521Z,20.85
2019-04-28T16:25:26.414Z,29.27
2019-04-28T16:27:57.936Z,27.98
2019-04-28T16:30:29.821Z,23.02
2019-04-28T16:33:01.887Z,26.20
2019-04-28T16:35:34.677Z,27.27
2019-04-28T16:38:06.531Z,34.23
2019-04-28T16:40:39.200Z,54.75
2019-04-28T16:43:11.587Z,57.03
2019-04-28T16:45:43.280Z,47.15
2019-04-28T16:48:15.200Z,43.60
2019-04-28T16:50:47.191Z,32.83
2019-04-28T16:53:18.822Z,28.95
2019-04-28T16:55:52.430Z,21.80
2019-04-28T16:58:41.290Z,21.85
2019-04-28T17:01:31.622Z,20.95
2019-04-28T17:04:03.675Z,24.45
2019-04-28T17:06:35.741Z,18.60
2019-04-28T17:09:08.528Z,20.55
2019-04-28T17:11:40.799Z,19.92
2019-04-28T17:14:12.661Z,28.67
2019-04-28T17:16:45.959Z,20.10
2019-04-28T17:19:17.910Z,21.90
2019-04-28T17:21:50.711Z,20.20
2019-04-28T17:24:22.760Z,21.27
2019-04-28T17:26:54.623Z,25.10
2019-04-28T17:29:27.016Z,26.30
2019-04-28T17:31:58.656Z,24.02
2019-04-28T17:34:33.629Z,27.73
2019-04-28T17:37:05.575Z,27.60
2019-04-28T17:39:37.231Z,25.97
2019-04-28T17:42:09.298Z,33.90
2019-04-28T17:44:41.472Z,23.10
2019-04-28T17:47:14.191Z,28.90
2019-04-28T17:49:45.808Z,31.93
2019-04-28T17:52:18.900Z,57.62
2019-04-28T17:54:50.765Z,54.42
2019-04-28T17:57:22.833Z,41.48
2019-04-28T17:59:56.292Z,41.42
2019-04-28T18:02:45.398Z,38.95
2019-04-28T18:05:30.881Z,33.08
2019-04-28T18:08:02.949Z,29.75
2019-04-28T18:10:35.325Z,28.27
2019-04-28T18:13:07.093Z,38.13
2019-04-28T18:15:49.090Z,33.55
2019-04-28T18:18:31.834Z,45.78
2019-04-28T18:21:03.660Z,50.50
2019-04-28T18:23:35.847Z,64.10
2019-04-28T18:26:07.715Z,41.65
2019-04-28T18:28:39.675Z,33.58
2019-04-28T18:31:15.937Z,39.90
2019-04-28T18:34:05.929Z,33.02
2019-04-28T18:36:55.509Z,36.88
2019-04-28T18:39:44.369Z,40.85
2019-04-28T18:42:18.068Z,33.15
2019-04-28T18:44:50.024Z,38.30
2019-04-28T18:47:22.005Z,41.98
2019-04-28T18:49:54.693Z,38.17
2019-04-28T18:52:27.496Z,37.33
2019-04-28T18:54:59.077Z,37.98
2019-04-28T18:57:31.410Z,33.15
2019-04-28T19:00:04.660Z,36.63
2019-04-28T19:02:42.190Z,35.28
2019-04-28T19:05:14.370Z,38.25
2019-04-28T19:07:50.650Z,38.98
2019-04-28T19:10:40.534Z,38.38
2019-04-28T19:13:13.913Z,46.98
2019-04-28T19:16:04.009Z,41.58
2019-04-28T19:18:37.616Z,48.92
2019-04-28T19:21:09.375Z,39.42
2019-04-28T19:23:41.461Z,46.45
2019-04-28T19:26:13.116Z,43.45
2019-04-28T19:28:45.223Z,41.95
2019-04-28T19:31:16.931Z,54.20
2019-04-28T19:33:49.017Z,39.98
2019-04-28T19:36:20.865Z,35.68
2019-04-28T19:39:02.997Z,40.33
2019-04-28T19:41:26.022Z,43.50
2019-04-28T19:43:59.341Z,36.77
2019-04-28T19:46:31.216Z,35.45
2019-04-28T19:49:03.273Z,34.13
2019-04-28T19:51:35.340Z,37.50
2019-04-28T19:54:07.901Z,40.90
2019-04-28T19:56:47.768Z,38.70
2019-04-28T19:59:27.497Z,35.10
2019-04-28T20:02:02.241Z,32.03
2019-04-28T20:04:34.104Z,35.30
2019-04-28T20:07:06.177Z,41.70
2019-04-28T20:09:37.947Z,42.03
2019-04-28T20:12:09.697Z,40.92
2019-04-28T20:14:41.850Z,37.63
2019-04-28T20:17:13.761Z,39.58
2019-04-28T20:19:46.007Z,42.70
2019-04-28T20:22:17.848Z,37.83
2019-04-28T20:24:49.731Z,40.70
2019-04-28T20:27:21.886Z,42.88
2019-04-28T20:29:53.545Z,36.98
2019-04-28T20:32:25.614Z,44.50
2019-04-28T20:34:57.595Z,43.05
2019-04-28T20:37:39.802Z,56.98
2019-04-28T20:40:16.563Z,42.48
2019-04-28T20:43:05.016Z,37.13
2019-04-28T20:45:37.099Z,38.30
2019-04-28T20:48:09.063Z,43.68
2019-04-28T20:50:41.027Z,40.92
2019-04-28T20:53:14.243Z,42.93
2019-04-28T20:55:46.291Z,46.60
2019-04-28T20:58:18.060Z,46.33
2019-04-28T21:00:50.134Z,47.27
2019-04-28T21:03:22.294Z,50.45
2019-04-28T21:05:53.952Z,41.73
2019-04-28T21:08:25.824Z,39.30
2019-04-28T21:10:57.495Z,42.25
2019-04-28T21:13:29.438Z,56.70
2019-04-28T21:16:01.487Z,50.20
2019-04-28T21:18:33.270Z,47.65
2019-04-28T21:21:05.333Z,46.15
2019-04-28T21:23:37.179Z,48.50
2019-04-28T21:26:09.250Z,43.08
2019-04-28T21:28:41.031Z,46.30
2019-04-28T21:31:12.979Z,37.88
2019-04-28T21:33:44.784Z,36.55
2019-04-28T21:36:16.621Z,35.90
2019-04-28T21:38:49.991Z,39.92
2019-04-28T21:41:22.001Z,31.30
2019-04-28T21:43:56.301Z,38.70
2019-04-28T21:46:29.888Z,32.88
2019-04-28T21:49:03.297Z,26.57
2019-04-28T21:51:36.551Z,29.82
2019-04-28T21:54:08.582Z,30.05
2019-04-28T21:56:40.846Z,24.40
2019-04-28T21:59:12.804Z,29.05
2019-04-28T22:01:45.448Z,28.45
2019-04-28T22:04:17.442Z,24.15
2019-04-28T22:06:49.432Z,29.52
2019-04-28T22:09:21.507Z,28.90
2019-04-28T22:11:53.250Z,25.55
2019-04-28T22:14:25.194Z,24.95
2019-04-28T22:16:57.075Z,28.23
2019-04-28T22:19:29.241Z,26.30
2019-04-28T22:22:00.829Z,28.80
2019-04-28T22:24:38.089Z,23.30
2019-04-28T22:27:11.471Z,26.57
2019-04-28T22:29:43.246Z,26.62
2019-04-28T22:32:15.111Z,27.87
2019-04-28T22:34:47.426Z,25.95
2019-04-28T22:37:19.248Z,27.10
2019-04-28T22:39:50.881Z,25.12
2019-04-28T22:42:22.974Z,22.37
2019-04-28T22:44:55.856Z,23.75
2019-04-28T22:47:28.216Z,28.90
2019-04-28T22:49:59.998Z,25.77
2019-04-28T22:52:31.656Z,27.15
2019-04-28T22:55:06.856Z,23.50
2019-04-28T22:57:42.971Z,22.65
2019-04-28T23:00:35.517Z,24.72
2019-04-28T23:03:08.782Z,22.75
2019-04-28T23:05:40.519Z,17.85
2019-04-28T23:08:12.063Z,16.20
2019-04-28T23:10:43.798Z,17.65
2019-04-28T23:13:15.316Z,15.70
2019-04-28T23:15:47.037Z,14.15
2019-04-28T23:18:19.039Z,15.10
2019-04-28T23:20:56.960Z,11.05
2019-04-28T23:23:28.925Z,11.40
2019-04-28T23:26:03.020Z,13.25
2019-04-28T23:28:34.189Z,16.87
2019-04-28T23:31:05.829Z,13.65
2019-04-28T23:33:37.813Z,15.32
2019-04-28T23:36:09.881Z,12.78
2019-04-28T23:38:42.586Z,14.70
2019-04-28T23:41:15.946Z,12.50
2019-04-28T23:43:47.832Z,14.40
2019-04-28T23:46:19.800Z,14.87
2019-04-28T23:48:51.848Z,17.80
2019-04-28T23:51:37.349Z,17.50
2019-04-28T23:54:09.108Z,14.95
2019-04-28T23:56:41.156Z,18.32
2019-04-28T23:59:13.019Z,19.42
